createdAt,value
2024-02-10T00:01:29.758Z,7.35
2024-02-10T00:03:58.166Z,7.93
2024-02-10T00:06:25.325Z,11.18
2024-02-10T00:08:52.296Z,10.15
2024-02-10T00:11:19.312Z,10.10
2024-02-10T00:13:46.300Z,13.70
2024-02-10T00:16:13.480Z,12.02
2024-02-10T00:18:42.450Z,9.07
2024-02-10T00:21:09.526Z,9.55
2024-02-10T00:23:36.517Z,10.02
2024-02-10T00:26:05.674Z,10.93
2024-02-10T00:28:36.615Z,9.02
2024-02-10T00:31:06.686Z,8.93
2024-02-10T00:33:35.436Z,8.23
2024-02-10T00:36:02.581Z,8.60
2024-02-10T00:38:29.341Z,8.18
2024-02-10T00:41:05.927Z,9.05
2024-02-10T00:43:33.142Z,9.98
2024-02-10T00:46:00.549Z,10.20
2024-02-10T00:48:27.649Z,8.50
2024-02-10T00:50:57.897Z,7.38
2024-02-10T00:53:24.843Z,11.20
2024-02-10T00:55:51.800Z,8.52
2024-02-10T00:58:18.811Z,10.80
2024-02-10T01:00:46.637Z,8.52
2024-02-10T01:03:14.441Z,7.30
2024-02-10T01:05:41.477Z,11.10
2024-02-10T01:08:09.417Z,10.15
2024-02-10T01:10:36.723Z,7.85
2024-02-10T01:13:04.679Z,6.20
2024-02-10T01:15:34.068Z,8.13
2024-02-10T01:18:05.423Z,10.88
2024-02-10T01:20:32.512Z,11.82
2024-02-10T01:23:01.104Z,9.63
2024-02-10T01:25:31.994Z,10.38
2024-02-10T01:27:59.830Z,11.57
2024-02-10T01:30:27.980Z,9.32
2024-02-10T01:32:59.718Z,13.07
2024-02-10T01:35:27.079Z,10.13
2024-02-10T01:37:54.270Z,9.07
2024-02-10T01:40:24.162Z,8.40
2024-02-10T01:42:51.205Z,11.30
2024-02-10T01:45:19.573Z,9.02
2024-02-10T01:47:47.715Z,8.15
2024-02-10T01:50:15.138Z,9.55
2024-02-10T01:52:46.149Z,9.43
2024-02-10T01:55:13.539Z,8.63
2024-02-10T01:57:40.933Z,11.05
2024-02-10T02:00:15.619Z,9.30
2024-02-10T02:02:42.685Z,10.95
2024-02-10T02:05:09.731Z,10.07
2024-02-10T02:07:37.300Z,12.95
2024-02-10T02:10:04.994Z,8.82
2024-02-10T02:12:32.988Z,12.32
2024-02-10T02:15:00.594Z,14.98
2024-02-10T02:17:27.804Z,14.80
2024-02-10T02:19:54.754Z,12.38
2024-02-10T02:22:21.876Z,10.82
2024-02-10T02:24:49.196Z,12.35
2024-02-10T02:27:16.769Z,13.75
2024-02-10T02:29:43.879Z,14.15
2024-02-10T02:32:12.243Z,12.25
2024-02-10T02:34:39.761Z,12.32
2024-02-10T02:37:08.615Z,12.35
2024-02-10T02:39:37.690Z,13.02
2024-02-10T02:42:09.208Z,9.05
2024-02-10T02:44:36.024Z,12.50
2024-02-10T02:47:06.742Z,11.63
2024-02-10T02:49:34.964Z,12.88
2024-02-10T02:52:02.368Z,14.00
2024-02-10T02:54:32.807Z,12.82
2024-02-10T02:57:01.734Z,9.38
2024-02-10T02:59:29.233Z,12.35
2024-02-10T03:01:56.621Z,10.95
2024-02-10T03:04:24.539Z,11.50
2024-02-10T03:06:52.272Z,9.80
2024-02-10T03:09:19.750Z,12.32
2024-02-10T03:11:46.822Z,13.68
2024-02-10T03:14:13.565Z,7.05
2024-02-10T03:16:41.241Z,10.15
2024-02-10T03:19:08.826Z,9.88
2024-02-10T03:21:37.261Z,11.57
2024-02-10T03:24:05.333Z,10.63
2024-02-10T03:26:33.661Z,10.82
2024-02-10T03:29:05.134Z,12.40
2024-02-10T03:31:32.786Z,14.93
2024-02-10T03:34:00.025Z,10.98
2024-02-10T03:36:27.209Z,6.10
2024-02-10T03:38:56.186Z,11.55
2024-02-10T03:41:24.527Z,11.02
2024-02-10T03:43:51.525Z,9.95
2024-02-10T03:46:23.195Z,5.65
2024-02-10T03:48:53.939Z,11.13
2024-02-10T03:51:21.000Z,12.45
2024-02-10T03:53:47.924Z,13.95
2024-02-10T03:56:14.828Z,11.52
2024-02-10T03:58:44.995Z,7.70
2024-02-10T04:01:16.578Z,10.05
2024-02-10T04:03:48.844Z,8.80
2024-02-10T04:06:17.337Z,9.77
2024-02-10T04:08:48.402Z,7.70
2024-02-10T04:11:18.355Z,11.55
2024-02-10T04:13:46.851Z,10.80
2024-02-10T04:16:15.406Z,13.38
2024-02-10T04:18:43.227Z,8.77
2024-02-10T04:21:11.092Z,9.93
2024-02-10T04:23:41.322Z,9.07
2024-02-10T04:26:09.220Z,12.57
2024-02-10T04:28:36.744Z,11.05
2024-02-10T04:31:04.780Z,12.23
2024-02-10T04:33:32.207Z,12.48
2024-02-10T04:36:00.584Z,12.43
2024-02-10T04:38:27.543Z,15.93
2024-02-10T04:40:54.606Z,15.15
2024-02-10T04:43:24.375Z,14.43
2024-02-10T04:45:51.405Z,12.57
2024-02-10T04:48:21.798Z,11.95
2024-02-10T04:50:49.132Z,17.13
2024-02-10T04:53:17.026Z,15.15
2024-02-10T04:55:44.662Z,10.23
2024-02-10T04:58:14.492Z,9.85
2024-02-10T05:00:42.430Z,10.63
2024-02-10T05:03:09.762Z,13.57
2024-02-10T05:05:37.025Z,16.20
2024-02-10T05:08:04.550Z,11.38
2024-02-10T05:10:31.682Z,14.32
2024-02-10T05:12:59.089Z,17.13
2024-02-10T05:15:28.557Z,19.27
2024-02-10T05:17:56.091Z,19.23
2024-02-10T05:20:24.870Z,10.93
2024-02-10T05:22:54.503Z,14.40
2024-02-10T05:25:22.867Z,12.80
2024-02-10T05:27:50.714Z,16.13
2024-02-10T05:30:22.005Z,16.63
2024-02-10T05:32:51.547Z,14.00
2024-02-10T05:35:20.137Z,19.00
2024-02-10T05:37:55.323Z,16.15
2024-02-10T05:40:23.596Z,15.95
2024-02-10T05:42:51.485Z,19.90
2024-02-10T05:45:19.764Z,16.17
2024-02-10T05:47:53.196Z,15.73
2024-02-10T05:50:23.982Z,13.50
2024-02-10T05:52:53.199Z,20.38
2024-02-10T05:55:27.503Z,17.80
2024-02-10T05:58:08.501Z,14.30
2024-02-10T06:00:39.778Z,12.25
2024-02-10T06:03:07.045Z,13.73
2024-02-10T06:05:34.222Z,21.33
2024-02-10T06:08:02.570Z,27.10
2024-02-10T06:10:29.680Z,16.95
2024-02-10T06:12:56.619Z,19.08
2024-02-10T06:15:25.448Z,17.60
2024-02-10T06:17:57.222Z,18.25
2024-02-10T06:20:25.139Z,24.38
2024-02-10T06:22:56.069Z,18.77
2024-02-10T06:25:26.760Z,7.70
2024-02-10T06:28:00.773Z,13.25
2024-02-10T06:30:32.106Z,11.80
2024-02-10T06:33:00.237Z,19.27
2024-02-10T06:35:28.605Z,17.23
2024-02-10T06:37:56.568Z,16.88
2024-02-10T06:40:24.827Z,18.63
2024-02-10T06:42:54.051Z,18.67
2024-02-10T06:45:26.321Z,14.40
2024-02-10T06:47:54.096Z,16.95
2024-02-10T06:50:26.236Z,18.33
2024-02-10T06:52:54.969Z,12.20
2024-02-10T06:55:25.407Z,13.95
2024-02-10T06:57:54.427Z,14.65
2024-02-10T07:00:21.584Z,10.32
2024-02-10T07:02:48.690Z,16.95
2024-02-10T07:05:18.166Z,13.07
2024-02-10T07:07:50.264Z,14.73
2024-02-10T07:10:21.997Z,17.25
2024-02-10T07:12:59.609Z,12.40
2024-02-10T07:15:31.639Z,14.27
2024-02-10T07:17:59.500Z,12.70
2024-02-10T07:20:27.206Z,12.43
2024-02-10T07:22:57.835Z,13.13
2024-02-10T07:25:31.476Z,13.57
2024-02-10T07:28:05.492Z,10.50
2024-02-10T07:30:34.401Z,13.40
2024-02-10T07:33:11.166Z,13.27
2024-02-10T07:35:45.063Z,13.80
2024-02-10T07:38:12.466Z,12.98
2024-02-10T07:40:40.073Z,9.32
2024-02-10T07:43:15.026Z,13.32
2024-02-10T07:45:42.181Z,14.38
2024-02-10T07:48:09.443Z,12.73
2024-02-10T07:50:39.857Z,11.73
2024-02-10T07:53:07.410Z,14.02
2024-02-10T07:55:37.198Z,14.23
2024-02-10T07:58:08.482Z,13.73
2024-02-10T08:00:35.466Z,15.07
2024-02-10T08:03:05.230Z,9.75
2024-02-10T08:05:32.201Z,13.93
2024-02-10T08:08:01.609Z,11.63
2024-02-10T08:10:28.816Z,11.57
2024-02-10T08:12:55.912Z,9.50
2024-02-10T08:15:24.342Z,10.23
2024-02-10T08:17:51.425Z,9.70
2024-02-10T08:20:21.177Z,10.07
2024-02-10T08:22:49.885Z,13.82
2024-02-10T08:25:19.913Z,13.63
2024-02-10T08:27:47.013Z,12.38
2024-02-10T08:30:18.088Z,13.45
2024-02-10T08:32:45.070Z,13.50
2024-02-10T08:35:13.749Z,15.02
2024-02-10T08:37:41.309Z,12.45
2024-02-10T08:40:11.074Z,10.43
2024-02-10T08:42:38.792Z,11.50
2024-02-10T08:45:12.851Z,10.15
2024-02-10T08:47:39.760Z,8.70
2024-02-10T08:50:07.819Z,13.10
2024-02-10T08:52:34.783Z,10.63
2024-02-10T08:55:08.296Z,11.85
2024-02-10T08:57:37.598Z,9.77
2024-02-10T09:00:12.188Z,10.05
2024-02-10T09:02:39.135Z,13.88
2024-02-10T09:05:08.771Z,10.65
2024-02-10T09:07:35.746Z,11.45
2024-02-10T09:10:02.606Z,17.35
2024-02-10T09:12:31.394Z,16.63
2024-02-10T09:14:58.322Z,13.02
2024-02-10T09:17:25.332Z,14.80
2024-02-10T09:19:52.815Z,11.82
2024-02-10T09:22:19.897Z,9.68
2024-02-10T09:24:46.847Z,12.55
2024-02-10T09:27:13.798Z,12.13
2024-02-10T09:29:40.553Z,9.65
2024-02-10T09:32:08.077Z,11.85
2024-02-10T09:34:35.538Z,11.55
2024-02-10T09:37:02.542Z,10.93
2024-02-10T09:39:29.543Z,11.40
2024-02-10T09:42:05.302Z,13.13
2024-02-10T09:44:34.499Z,7.03
2024-02-10T09:47:03.483Z,9.10
2024-02-10T09:49:31.547Z,12.70
2024-02-10T09:52:00.364Z,10.27
2024-02-10T09:54:27.863Z,10.45
2024-02-10T09:56:58.367Z,10.30
2024-02-10T09:59:26.442Z,12.48
2024-02-10T10:01:55.821Z,9.98
2024-02-10T10:04:23.267Z,9.20
2024-02-10T10:06:50.904Z,12.40
2024-02-10T10:09:22.651Z,12.18
2024-02-10T10:11:51.423Z,10.80
2024-02-10T10:14:19.567Z,10.38
2024-02-10T10:17:00.036Z,7.70
2024-02-10T10:19:28.793Z,12.27
2024-02-10T10:21:57.887Z,12.50
2024-02-10T10:24:29.365Z,6.07
2024-02-10T10:26:58.016Z,9.60
2024-02-10T10:29:25.081Z,11.10
2024-02-10T10:31:55.069Z,10.18
2024-02-10T10:34:24.788Z,9.80
2024-02-10T10:36:54.623Z,10.40
2024-02-10T10:39:23.727Z,7.72
2024-02-10T10:41:53.331Z,9.23
2024-02-10T10:44:22.347Z,9.88
2024-02-10T10:46:50.232Z,10.52
2024-02-10T10:49:17.649Z,9.30
2024-02-10T10:52:03.219Z,10.32
2024-02-10T10:54:35.014Z,7.78
2024-02-10T10:57:07.071Z,9.90
2024-02-10T10:59:37.116Z,7.05
2024-02-10T11:02:16.323Z,8.45
2024-02-10T11:04:47.757Z,10.77
2024-02-10T11:07:17.586Z,9.73
2024-02-10T11:09:53.218Z,7.63
2024-02-10T11:12:20.387Z,9.90
2024-02-10T11:14:54.789Z,8.02
2024-02-10T11:17:22.264Z,6.43
2024-02-10T11:20:02.808Z,6.82
2024-02-10T11:22:43.912Z,6.40
2024-02-10T11:25:17.839Z,4.57
2024-02-10T11:27:48.529Z,6.88
2024-02-10T11:30:15.828Z,6.15
2024-02-10T11:32:49.384Z,5.93
2024-02-10T11:35:16.908Z,6.32
2024-02-10T11:37:44.254Z,6.88
2024-02-10T11:40:17.124Z,7.30
2024-02-10T11:42:44.818Z,6.63
2024-02-10T11:45:12.254Z,5.07
2024-02-10T11:47:39.681Z,21.35
2024-02-10T11:50:08.167Z,20.50
2024-02-10T11:52:37.743Z,4.93
2024-02-10T11:55:05.671Z,6.03
2024-02-10T11:57:32.761Z,6.60
2024-02-10T11:59:59.769Z,5.50
2024-02-10T12:02:27.891Z,4.53
2024-02-10T12:04:55.199Z,4.82
2024-02-10T12:07:22.474Z,5.35
2024-02-10T12:09:49.373Z,7.07
2024-02-10T12:12:17.221Z,5.93
2024-02-10T12:14:44.329Z,4.78
2024-02-10T12:17:11.400Z,7.43
2024-02-10T12:19:40.925Z,7.15
2024-02-10T12:22:12.460Z,5.07
2024-02-10T12:24:44.938Z,5.20
2024-02-10T12:27:12.878Z,6.38
2024-02-10T12:29:40.180Z,4.38
2024-02-10T12:32:09.958Z,6.32
2024-02-10T12:34:37.008Z,4.97
2024-02-10T12:37:04.520Z,5.40
2024-02-10T12:39:31.495Z,5.18
2024-02-10T12:42:00.791Z,4.97
2024-02-10T12:44:28.175Z,7.22
2024-02-10T12:46:55.290Z,5.97
2024-02-10T12:49:23.123Z,6.90
2024-02-10T12:51:50.375Z,4.70
2024-02-10T12:54:17.462Z,5.43
2024-02-10T12:56:44.449Z,7.40
2024-02-10T12:59:12.182Z,7.63
2024-02-10T13:01:39.577Z,9.93
2024-02-10T13:04:06.694Z,4.95
2024-02-10T13:06:33.734Z,5.30
2024-02-10T13:09:00.872Z,5.03
2024-02-10T13:11:27.956Z,5.50
2024-02-10T13:13:56.582Z,4.80
2024-02-10T13:16:23.947Z,4.85
2024-02-10T13:18:52.264Z,4.00
2024-02-10T13:21:21.144Z,5.45
2024-02-10T13:23:48.481Z,8.25
2024-02-10T13:26:15.865Z,6.95
2024-02-10T13:28:47.071Z,6.00
2024-02-10T13:31:14.216Z,5.60
2024-02-10T13:33:42.460Z,9.23
2024-02-10T13:36:17.200Z,4.85
2024-02-10T13:39:03.448Z,4.80
2024-02-10T13:41:48.768Z,5.75
2024-02-10T13:44:34.319Z,7.47
2024-02-10T13:47:19.870Z,5.70
2024-02-10T13:50:05.145Z,7.65
2024-02-10T13:52:50.626Z,6.70
2024-02-10T13:55:36.318Z,6.70
2024-02-10T13:58:13.036Z,4.95
2024-02-10T14:00:45.812Z,5.80
2024-02-10T14:03:15.120Z,6.05
2024-02-10T14:05:49.929Z,7.55
2024-02-10T14:08:37.120Z,5.53
2024-02-10T14:11:24.901Z,4.03
2024-02-10T14:13:53.268Z,4.50
2024-02-10T14:16:29.264Z,5.22
2024-02-10T14:19:07.353Z,4.32
2024-02-10T14:21:37.643Z,4.63
2024-02-10T14:24:06.481Z,5.30
2024-02-10T14:26:41.967Z,8.98
2024-02-10T14:29:21.148Z,3.22
2024-02-10T14:31:49.581Z,5.07
2024-02-10T14:34:27.621Z,4.38
2024-02-10T14:37:06.941Z,6.47
2024-02-10T14:39:35.050Z,4.88
2024-02-10T14:42:02.010Z,6.55
2024-02-10T14:44:30.872Z,4.45
2024-02-10T14:47:00.426Z,5.53
2024-02-10T14:49:27.607Z,6.22
2024-02-10T14:51:54.547Z,5.78
2024-02-10T14:54:22.669Z,6.60
2024-02-10T14:56:49.646Z,5.80
2024-02-10T14:59:17.075Z,6.53
2024-02-10T15:01:44.252Z,10.38
2024-02-10T15:04:12.381Z,4.57
2024-02-10T15:06:42.198Z,7.82
2024-02-10T15:09:09.784Z,7.95
2024-02-10T15:11:41.153Z,7.25
2024-02-10T15:14:10.450Z,8.35
2024-02-10T15:16:38.544Z,6.43
2024-02-10T15:19:05.572Z,4.15
2024-02-10T15:21:34.193Z,4.35
2024-02-10T15:24:08.223Z,4.22
2024-02-10T15:26:35.265Z,3.50
2024-02-10T15:29:03.478Z,5.13
2024-02-10T15:31:35.727Z,4.95
2024-02-10T15:34:05.209Z,5.88
2024-02-10T15:36:37.313Z,7.30
2024-02-10T15:39:06.786Z,5.72
2024-02-10T15:41:35.357Z,5.45
2024-02-10T15:44:08.047Z,6.78
2024-02-10T15:46:36.707Z,7.97
2024-02-10T15:49:04.386Z,5.65
2024-02-10T15:51:34.559Z,5.97
2024-02-10T15:54:02.072Z,7.38
2024-02-10T15:56:29.380Z,3.60
2024-02-10T15:58:56.506Z,7.20
2024-02-10T16:01:23.978Z,7.80
2024-02-10T16:03:52.350Z,4.97
2024-02-10T16:06:19.641Z,9.45
2024-02-10T16:08:49.096Z,10.55
2024-02-10T16:11:16.985Z,7.75
2024-02-10T16:13:46.074Z,14.50
2024-02-10T16:16:18.021Z,8.75
2024-02-10T16:18:48.363Z,9.40
2024-02-10T16:21:27.932Z,9.20
2024-02-10T16:23:56.466Z,7.00
2024-02-10T16:26:23.677Z,9.77
2024-02-10T16:28:52.569Z,9.82
2024-02-10T16:31:21.973Z,9.07
2024-02-10T16:33:50.751Z,13.60
2024-02-10T16:36:17.861Z,11.65
2024-02-10T16:38:44.863Z,8.60
2024-02-10T16:41:19.496Z,10.55
2024-02-10T16:43:46.556Z,9.63
2024-02-10T16:46:17.394Z,6.68
2024-02-10T16:48:50.738Z,11.73
2024-02-10T16:51:34.421Z,8.75
2024-02-10T16:54:06.055Z,9.15
2024-02-10T16:56:36.821Z,9.07
2024-02-10T16:59:08.701Z,10.32
2024-02-10T17:01:36.033Z,6.05
2024-02-10T17:04:09.252Z,9.38
2024-02-10T17:06:37.616Z,9.48
2024-02-10T17:09:06.192Z,17.65
2024-02-10T17:11:34.742Z,12.00
2024-02-10T17:14:02.171Z,14.20
2024-02-10T17:16:30.309Z,15.68
2024-02-10T17:19:00.536Z,10.15
2024-02-10T17:21:27.869Z,8.02
2024-02-10T17:23:54.802Z,8.88
2024-02-10T17:26:21.898Z,14.10
2024-02-10T17:28:49.052Z,10.85
2024-02-10T17:31:16.455Z,14.57
2024-02-10T17:33:43.702Z,11.93
2024-02-10T17:36:10.998Z,9.20
2024-02-10T17:38:39.211Z,12.90
2024-02-10T17:41:12.143Z,11.93
2024-02-10T17:43:39.633Z,12.77
2024-02-10T17:46:06.725Z,13.23
2024-02-10T17:48:35.169Z,13.75
2024-02-10T17:51:02.373Z,10.48
2024-02-10T17:53:30.887Z,11.60
2024-02-10T17:56:03.192Z,13.55
2024-02-10T17:58:32.917Z,15.85
2024-02-10T18:01:00.918Z,10.15
2024-02-10T18:03:31.230Z,11.07
2024-02-10T18:06:00.977Z,11.68
2024-02-10T18:08:30.833Z,10.18
2024-02-10T18:10:58.033Z,14.57
2024-02-10T18:13:25.599Z,11.32
2024-02-10T18:15:52.754Z,11.82
2024-02-10T18:18:20.353Z,16.08
2024-02-10T18:20:48.003Z,11.85
2024-02-10T18:23:15.141Z,9.65
2024-02-10T18:25:43.596Z,11.00
2024-02-10T18:28:14.030Z,14.00
2024-02-10T18:30:41.603Z,12.20
2024-02-10T18:33:08.809Z,12.45
2024-02-10T18:35:35.732Z,15.30
2024-02-10T18:38:03.094Z,9.90
2024-02-10T18:40:31.209Z,15.02
2024-02-10T18:42:59.897Z,16.52
2024-02-10T18:45:34.151Z,16.92
2024-02-10T18:48:02.341Z,13.30
2024-02-10T18:50:29.412Z,17.50
2024-02-10T18:52:58.165Z,15.82
2024-02-10T18:55:25.693Z,14.10
2024-02-10T18:57:52.708Z,9.43
2024-02-10T19:00:22.734Z,16.83
2024-02-10T19:02:50.047Z,11.68
2024-02-10T19:05:17.863Z,10.35
2024-02-10T19:07:45.703Z,13.85
2024-02-10T19:10:13.034Z,15.07
2024-02-10T19:12:40.618Z,10.63
2024-02-10T19:15:11.574Z,10.07
2024-02-10T19:17:39.144Z,12.75
2024-02-10T19:20:07.925Z,14.95
2024-02-10T19:22:36.863Z,11.50
2024-02-10T19:25:07.960Z,17.15
2024-02-10T19:27:39.982Z,13.70
2024-02-10T19:30:11.307Z,10.38
2024-02-10T19:32:46.278Z,9.77
2024-02-10T19:35:15.159Z,10.52
2024-02-10T19:37:47.773Z,11.20
2024-02-10T19:40:19.599Z,10.68
2024-02-10T19:42:48.040Z,13.48
2024-02-10T19:45:16.715Z,13.85
2024-02-10T19:47:47.787Z,12.93
2024-02-10T19:50:19.447Z,15.88
2024-02-10T19:52:47.822Z,11.23
2024-02-10T19:55:16.137Z,13.95
2024-02-10T19:57:43.615Z,10.88
2024-02-10T20:00:12.186Z,10.35
2024-02-10T20:02:44.060Z,12.63
2024-02-10T20:05:13.411Z,10.95
2024-02-10T20:07:43.147Z,7.43
2024-02-10T20:10:11.092Z,13.75
2024-02-10T20:12:43.833Z,10.85
2024-02-10T20:15:12.063Z,7.13
2024-02-10T20:17:42.423Z,9.77
2024-02-10T20:20:15.790Z,10.68
2024-02-10T20:22:43.061Z,10.50
2024-02-10T20:25:11.036Z,7.32
2024-02-10T20:27:38.019Z,8.85
2024-02-10T20:30:08.500Z,9.57
2024-02-10T20:32:35.575Z,10.77
2024-02-10T20:35:03.871Z,9.60
2024-02-10T20:37:31.479Z,6.13
2024-02-10T20:39:58.705Z,13.13
2024-02-10T20:42:27.692Z,5.65
2024-02-10T20:44:54.729Z,6.38
2024-02-10T20:47:21.778Z,9.98
2024-02-10T20:49:49.075Z,8.05
2024-02-10T20:52:16.154Z,7.28
2024-02-10T20:54:44.863Z,8.32
2024-02-10T20:57:12.730Z,4.53
2024-02-10T20:59:40.027Z,10.23
2024-02-10T21:02:08.340Z,10.13
2024-02-10T21:04:36.497Z,4.90
2024-02-10T21:07:03.572Z,4.88
2024-02-10T21:09:30.748Z,8.77
2024-02-10T21:12:00.044Z,12.85
2024-02-10T21:14:28.490Z,7.50
2024-02-10T21:16:58.835Z,2.05
2024-02-10T21:19:26.071Z,3.80
2024-02-10T21:21:53.421Z,9.38
2024-02-10T21:24:22.686Z,2.65
2024-02-10T21:26:50.597Z,2.70
2024-02-10T21:29:17.934Z,0.20
2024-02-10T21:31:45.028Z,0.45
2024-02-10T21:34:12.627Z,0.10
2024-02-10T21:36:39.848Z,0.80
2024-02-10T21:39:10.965Z,0.00
2024-02-10T21:41:38.443Z,0.00
2024-02-10T21:44:06.037Z,2.28
2024-02-10T21:46:33.209Z,0.00
2024-02-10T21:49:01.825Z,0.03
2024-02-10T21:51:34.316Z,0.10
2024-02-10T21:54:01.800Z,1.00
2024-02-10T21:56:29.091Z,1.08
2024-02-10T21:59:01.378Z,0.00
2024-02-10T22:01:30.497Z,0.00
2024-02-10T22:03:59.887Z,0.75
2024-02-10T22:06:30.136Z,0.00
2024-02-10T22:09:05.516Z,0.85
2024-02-10T22:11:32.606Z,0.65
2024-02-10T22:13:59.795Z,0.25
2024-02-10T22:16:26.841Z,0.77
2024-02-10T22:18:55.148Z,0.00
2024-02-10T22:21:23.602Z,0.10
2024-02-10T22:23:51.518Z,0.52
2024-02-10T22:26:22.651Z,0.20
2024-02-10T22:28:49.757Z,0.00
2024-02-10T22:31:17.434Z,3.08
2024-02-10T22:33:44.664Z,9.13
2024-02-10T22:36:12.727Z,0.00
2024-02-10T22:38:41.542Z,1.52
2024-02-10T22:41:12.522Z,0.00
2024-02-10T22:43:39.951Z,0.40
2024-02-10T22:46:10.058Z,0.00
2024-02-10T22:48:37.326Z,1.15
2024-02-10T22:51:04.816Z,0.00
2024-02-10T22:53:34.302Z,0.00
2024-02-10T22:56:01.637Z,0.65
2024-02-10T22:58:29.858Z,5.95
2024-02-10T23:00:57.279Z,0.30
2024-02-10T23:03:25.254Z,0.10
2024-02-10T23:05:52.508Z,0.10
2024-02-10T23:08:21.438Z,1.77
2024-02-10T23:10:48.889Z,0.03
2024-02-10T23:13:21.944Z,0.47
2024-02-10T23:15:49.886Z,0.00
2024-02-10T23:18:19.800Z,0.00
2024-02-10T23:20:48.657Z,0.00
2024-02-10T23:23:19.249Z,0.00
2024-02-10T23:25:49.418Z,0.85
2024-02-10T23:28:17.775Z,14.70
2024-02-10T23:30:52.727Z,1.20
2024-02-10T23:33:34.101Z,3.72
2024-02-10T23:36:25.522Z,0.13
2024-02-10T23:38:55.009Z,0.00
2024-02-10T23:41:21.890Z,0.00
2024-02-10T23:43:49.036Z,0.00
2024-02-10T23:46:16.749Z,1.60
2024-02-10T23:48:46.861Z,0.30
2024-02-10T23:51:17.517Z,0.00
2024-02-10T23:53:45.858Z,0.00
2024-02-10T23:56:16.826Z,0.00
2024-02-10T23:58:45.088Z,0.00
